sensor_id;sensor_type;location;lat;lon;timestamp;temperature;humidity
51908;DHT22;39320;53.214;6.556;2023-10-13T00:01:22;14.90;99.90
51908;DHT22;39320;53.214;6.556;2023-10-13T00:03:49;14.90;99.90
51908;DHT22;39320;53.214;6.556;2023-10-13T00:06:14;14.90;99.90
51908;DHT22;39320;53.214;6.556;2023-10-13T00:08:41;14.90;99.90
51908;DHT22;39320;53.214;6.556;2023-10-13T00:11:12;15.00;99.90
51908;DHT22;39320;53.214;6.556;2023-10-13T00:13:37;15.00;99.90
51908;DHT22;39320;53.214;6.556;2023-10-13T00:16:20;15.00;99.90
51908;DHT22;39320;53.214;6.556;2023-10-13T00:18:53;15.00;99.90
51908;DHT22;39320;53.214;6.556;2023-10-13T00:21:23;15.10;99.90
51908;DHT22;39320;53.214;6.556;2023-10-13T00:24:01;15.10;99.90
51908;DHT22;39320;53.214;6.556;2023-10-13T00:26:31;15.10;99.90
51908;DHT22;39320;53.214;6.556;2023-10-13T00:29:02;15.10;99.90
51908;DHT22;39320;53.214;6.556;2023-10-13T00:31:44;15.20;99.90
51908;DHT22;39320;53.214;6.556;2023-10-13T00:34:13;15.20;99.90
51908;DHT22;39320;53.214;6.556;2023-10-13T00:36:51;15.20;99.90
51908;DHT22;39320;53.214;6.556;2023-10-13T00:39:38;15.20;99.90
51908;DHT22;39320;53.214;6.556;2023-10-13T00:42:09;15.20;99.90
51908;DHT22;39320;53.214;6.556;2023-10-13T00:44:44;15.30;99.90
51908;DHT22;39320;53.214;6.556;2023-10-13T00:47:17;15.30;99.90
51908;DHT22;39320;53.214;6.556;2023-10-13T00:50:04;15.30;99.90
51908;DHT22;39320;53.214;6.556;2023-10-13T00:52:31;15.30;99.90
51908;DHT22;39320;53.214;6.556;2023-10-13T00:55:00;15.30;99.90
51908;DHT22;39320;53.214;6.556;2023-10-13T00:57:26;15.30;99.90
51908;DHT22;39320;53.214;6.556;2023-10-13T00:59:56;15.30;99.90
51908;DHT22;39320;53.214;6.556;2023-10-13T01:02:37;15.40;99.90
51908;DHT22;39320;53.214;6.556;2023-10-13T01:05:07;15.40;99.90
51908;DHT22;39320;53.214;6.556;2023-10-13T01:07:45;15.50;99.90
51908;DHT22;39320;53.214;6.556;2023-10-13T01:10:17;15.50;99.90
51908;DHT22;39320;53.214;6.556;2023-10-13T01:12:42;15.40;99.90
51908;DHT22;39320;53.214;6.556;2023-10-13T01:15:09;15.50;99.90
51908;DHT22;39320;53.214;6.556;2023-10-13T01:17:36;15.50;99.90
51908;DHT22;39320;53.214;6.556;2023-10-13T01:20:08;15.50;99.90
51908;DHT22;39320;53.214;6.556;2023-10-13T01:22:36;15.60;99.90
51908;DHT22;39320;53.214;6.556;2023-10-13T01:25:03;15.60;99.90
51908;DHT22;39320;53.214;6.556;2023-10-13T01:27:36;15.60;99.90
51908;DHT22;39320;53.214;6.556;2023-10-13T01:30:04;15.60;99.90
51908;DHT22;39320;53.214;6.556;2023-10-13T01:32:51;15.70;99.90
51908;DHT22;39320;53.214;6.556;2023-10-13T01:35:20;15.70;99.90
51908;DHT22;39320;53.214;6.556;2023-10-13T01:38:01;15.70;99.90
51908;DHT22;39320;53.214;6.556;2023-10-13T01:40:26;15.70;99.90
51908;DHT22;39320;53.214;6.556;2023-10-13T01:42:54;15.70;99.90
51908;DHT22;39320;53.214;6.556;2023-10-13T01:45:23;15.70;99.90
51908;DHT22;39320;53.214;6.556;2023-10-13T01:47:54;15.70;99.90
51908;DHT22;39320;53.214;6.556;2023-10-13T01:50:21;15.80;99.90
51908;DHT22;39320;53.214;6.556;2023-10-13T01:52:54;15.80;99.90
51908;DHT22;39320;53.214;6.556;2023-10-13T01:55:45;15.80;99.90
51908;DHT22;39320;53.214;6.556;2023-10-13T01:58:13;15.80;99.90
51908;DHT22;39320;53.214;6.556;2023-10-13T02:00:42;15.80;99.90
51908;DHT22;39320;53.214;6.556;2023-10-13T02:03:10;15.90;99.90
51908;DHT22;39320;53.214;6.556;2023-10-13T02:05:45;15.90;99.90
51908;DHT22;39320;53.214;6.556;2023-10-13T02:08:21;15.90;99.90
51908;DHT22;39320;53.214;6.556;2023-10-13T02:10:54;15.90;99.90
51908;DHT22;39320;53.214;6.556;2023-10-13T02:13:23;15.90;99.90
51908;DHT22;39320;53.214;6.556;2023-10-13T02:15:53;16.00;99.90
51908;DHT22;39320;53.214;6.556;2023-10-13T02:18:22;16.00;99.90
51908;DHT22;39320;53.214;6.556;2023-10-13T02:21:03;16.00;99.90
51908;DHT22;39320;53.214;6.556;2023-10-13T02:23:41;16.00;99.90
51908;DHT22;39320;53.214;6.556;2023-10-13T02:26:12;16.00;99.90
51908;DHT22;39320;53.214;6.556;2023-10-13T02:28:42;16.00;99.90
51908;DHT22;39320;53.214;6.556;2023-10-13T02:31:09;16.00;99.90
51908;DHT22;39320;53.214;6.556;2023-10-13T02:33:36;16.00;99.90
51908;DHT22;39320;53.214;6.556;2023-10-13T02:36:10;16.00;99.90
51908;DHT22;39320;53.214;6.556;2023-10-13T02:38:38;16.00;99.90
51908;DHT22;39320;53.214;6.556;2023-10-13T02:41:14;16.00;99.90
51908;DHT22;39320;53.214;6.556;2023-10-13T02:43:53;16.10;99.90
51908;DHT22;39320;53.214;6.556;2023-10-13T02:46:20;16.00;99.90
51908;DHT22;39320;53.214;6.556;2023-10-13T02:48:54;16.10;99.90
51908;DHT22;39320;53.214;6.556;2023-10-13T02:51:21;16.10;99.90
51908;DHT22;39320;53.214;6.556;2023-10-13T02:54:13;16.10;99.90
51908;DHT22;39320;53.214;6.556;2023-10-13T02:56:44;16.10;99.90
51908;DHT22;39320;53.214;6.556;2023-10-13T02:59:15;16.10;99.90
51908;DHT22;39320;53.214;6.556;2023-10-13T03:01:45;16.10;99.90
51908;DHT22;39320;53.214;6.556;2023-10-13T03:04:10;16.10;99.90
51908;DHT22;39320;53.214;6.556;2023-10-13T03:06:38;16.10;99.90
51908;DHT22;39320;53.214;6.556;2023-10-13T03:09:08;16.10;99.90
51908;DHT22;39320;53.214;6.556;2023-10-13T03:11:47;16.10;99.90
51908;DHT22;39320;53.214;6.556;2023-10-13T03:14:16;16.10;99.90
51908;DHT22;39320;53.214;6.556;2023-10-13T03:16:56;16.20;99.90
51908;DHT22;39320;53.214;6.556;2023-10-13T03:19:29;16.20;99.90
51908;DHT22;39320;53.214;6.556;2023-10-13T03:22:09;16.20;99.90
51908;DHT22;39320;53.214;6.556;2023-10-13T03:24:37;16.20;99.90
51908;DHT22;39320;53.214;6.556;2023-10-13T03:27:20;16.10;99.90
51908;DHT22;39320;53.214;6.556;2023-10-13T03:29:50;16.10;99.90
51908;DHT22;39320;53.214;6.556;2023-10-13T03:32:26;16.20;99.90
51908;DHT22;39320;53.214;6.556;2023-10-13T03:34:51;16.10;99.90
51908;DHT22;39320;53.214;6.556;2023-10-13T03:37:18;16.10;99.90
51908;DHT22;39320;53.214;6.556;2023-10-13T03:40:03;16.20;99.90
51908;DHT22;39320;53.214;6.556;2023-10-13T03:42:32;16.20;99.90
51908;DHT22;39320;53.214;6.556;2023-10-13T03:44:58;16.20;99.90
51908;DHT22;39320;53.214;6.556;2023-10-13T03:47:23;16.20;99.90
51908;DHT22;39320;53.214;6.556;2023-10-13T03:49:53;16.20;99.90
51908;DHT22;39320;53.214;6.556;2023-10-13T03:52:39;16.20;99.90
51908;DHT22;39320;53.214;6.556;2023-10-13T03:55:05;16.20;99.90
51908;DHT22;39320;53.214;6.556;2023-10-13T03:57:32;16.20;99.90
51908;DHT22;39320;53.214;6.556;2023-10-13T03:59:59;16.20;99.90
51908;DHT22;39320;53.214;6.556;2023-10-13T04:02:33;16.20;99.90
51908;DHT22;39320;53.214;6.556;2023-10-13T04:04:59;16.20;99.90
51908;DHT22;39320;53.214;6.556;2023-10-13T04:07:33;16.20;99.90
51908;DHT22;39320;53.214;6.556;2023-10-13T04:10:07;16.20;99.90
51908;DHT22;39320;53.214;6.556;2023-10-13T04:13:05;16.20;99.90
51908;DHT22;39320;53.214;6.556;2023-10-13T04:15:49;16.20;99.90
51908;DHT22;39320;53.214;6.556;2023-10-13T04:18:33;16.20;99.90
51908;DHT22;39320;53.214;6.556;2023-10-13T04:21:37;16.20;99.90
51908;DHT22;39320;53.214;6.556;2023-10-13T04:24:10;16.30;99.90
51908;DHT22;39320;53.214;6.556;2023-10-13T04:26:49;16.20;99.90
51908;DHT22;39320;53.214;6.556;2023-10-13T04:29:34;16.20;99.90
51908;DHT22;39320;53.214;6.556;2023-10-13T04:32:18;16.20;99.90
51908;DHT22;39320;53.214;6.556;2023-10-13T04:34:58;16.20;99.90
51908;DHT22;39320;53.214;6.556;2023-10-13T04:37:35;16.20;99.90
51908;DHT22;39320;53.214;6.556;2023-10-13T04:40:17;16.20;99.90
51908;DHT22;39320;53.214;6.556;2023-10-13T04:42:45;16.30;99.90
51908;DHT22;39320;53.214;6.556;2023-10-13T04:45:17;16.20;99.90
51908;DHT22;39320;53.214;6.556;2023-10-13T04:47:59;16.30;99.90
51908;DHT22;39320;53.214;6.556;2023-10-13T04:50:59;16.20;99.90
51908;DHT22;39320;53.214;6.556;2023-10-13T04:53:46;16.30;99.90
51908;DHT22;39320;53.214;6.556;2023-10-13T04:56:35;16.30;99.90
51908;DHT22;39320;53.214;6.556;2023-10-13T04:59:06;16.30;99.90
51908;DHT22;39320;53.214;6.556;2023-10-13T05:02:01;16.30;99.90
51908;DHT22;39320;53.214;6.556;2023-10-13T05:04:46;16.30;99.90
51908;DHT22;39320;53.214;6.556;2023-10-13T05:07:31;16.30;99.90
51908;DHT22;39320;53.214;6.556;2023-10-13T05:10:16;16.30;99.90
51908;DHT22;39320;53.214;6.556;2023-10-13T05:13:00;16.30;99.90
51908;DHT22;39320;53.214;6.556;2023-10-13T05:15:47;16.30;99.90
51908;DHT22;39320;53.214;6.556;2023-10-13T05:18:31;16.30;99.90
51908;DHT22;39320;53.214;6.556;2023-10-13T05:21:16;16.30;99.90
51908;DHT22;39320;53.214;6.556;2023-10-13T05:24:01;16.30;99.90
51908;DHT22;39320;53.214;6.556;2023-10-13T05:26:45;16.30;99.90
51908;DHT22;39320;53.214;6.556;2023-10-13T05:29:29;16.30;99.90
51908;DHT22;39320;53.214;6.556;2023-10-13T05:32:13;16.20;99.90
51908;DHT22;39320;53.214;6.556;2023-10-13T05:34:57;16.20;99.90
51908;DHT22;39320;53.214;6.556;2023-10-13T05:37:41;16.30;99.90
51908;DHT22;39320;53.214;6.556;2023-10-13T05:40:26;16.30;99.90
51908;DHT22;39320;53.214;6.556;2023-10-13T05:43:10;16.20;99.90
51908;DHT22;39320;53.214;6.556;2023-10-13T05:46:00;16.30;99.90
51908;DHT22;39320;53.214;6.556;2023-10-13T05:48:29;16.30;99.90
51908;DHT22;39320;53.214;6.556;2023-10-13T05:51:15;16.20;99.90
51908;DHT22;39320;53.214;6.556;2023-10-13T05:54:10;16.20;99.90
51908;DHT22;39320;53.214;6.556;2023-10-13T05:56:49;16.20;99.90
51908;DHT22;39320;53.214;6.556;2023-10-13T05:59:36;16.20;99.90
51908;DHT22;39320;53.214;6.556;2023-10-13T06:02:21;16.20;99.90
51908;DHT22;39320;53.214;6.556;2023-10-13T06:05:10;16.10;99.90
51908;DHT22;39320;53.214;6.556;2023-10-13T06:07:55;16.10;99.90
51908;DHT22;39320;53.214;6.556;2023-10-13T06:10:39;16.10;99.90
51908;DHT22;39320;53.214;6.556;2023-10-13T06:13:24;16.10;99.90
51908;DHT22;39320;53.214;6.556;2023-10-13T06:16:09;16.20;99.90
51908;DHT22;39320;53.214;6.556;2023-10-13T06:18:54;16.10;99.90
51908;DHT22;39320;53.214;6.556;2023-10-13T06:21:38;16.10;99.90
51908;DHT22;39320;53.214;6.556;2023-10-13T06:24:22;16.10;99.90
51908;DHT22;39320;53.214;6.556;2023-10-13T06:27:07;16.10;99.90
51908;DHT22;39320;53.214;6.556;2023-10-13T06:29:51;16.10;99.90
51908;DHT22;39320;53.214;6.556;2023-10-13T06:32:19;16.10;99.90
51908;DHT22;39320;53.214;6.556;2023-10-13T06:34:46;16.10;99.90
51908;DHT22;39320;53.214;6.556;2023-10-13T06:37:14;16.10;99.90
51908;DHT22;39320;53.214;6.556;2023-10-13T06:39:50;16.00;99.90
51908;DHT22;39320;53.214;6.556;2023-10-13T06:42:16;16.10;99.90
51908;DHT22;39320;53.214;6.556;2023-10-13T06:44:45;16.00;99.90
51908;DHT22;39320;53.214;6.556;2023-10-13T06:47:14;16.10;99.90
51908;DHT22;39320;53.214;6.556;2023-10-13T06:49:40;16.00;99.90
51908;DHT22;39320;53.214;6.556;2023-10-13T06:52:09;16.10;99.90
51908;DHT22;39320;53.214;6.556;2023-10-13T06:54:38;16.20;99.90
51908;DHT22;39320;53.214;6.556;2023-10-13T06:57:07;16.20;99.90
51908;DHT22;39320;53.214;6.556;2023-10-13T06:59:40;16.20;99.90
51908;DHT22;39320;53.214;6.556;2023-10-13T07:02:06;16.30;99.90
51908;DHT22;39320;53.214;6.556;2023-10-13T07:04:34;16.30;99.90
51908;DHT22;39320;53.214;6.556;2023-10-13T07:07:03;16.30;99.90
51908;DHT22;39320;53.214;6.556;2023-10-13T07:09:31;16.40;99.90
51908;DHT22;39320;53.214;6.556;2023-10-13T07:12:00;16.40;99.90
51908;DHT22;39320;53.214;6.556;2023-10-13T07:14:32;16.40;99.90
51908;DHT22;39320;53.214;6.556;2023-10-13T07:17:06;16.40;99.90
51908;DHT22;39320;53.214;6.556;2023-10-13T07:19:33;16.50;99.90
51908;DHT22;39320;53.214;6.556;2023-10-13T07:22:02;16.50;99.90
51908;DHT22;39320;53.214;6.556;2023-10-13T07:24:50;16.40;99.90
51908;DHT22;39320;53.214;6.556;2023-10-13T07:27:20;16.50;99.90
51908;DHT22;39320;53.214;6.556;2023-10-13T07:29:56;16.40;99.90
51908;DHT22;39320;53.214;6.556;2023-10-13T07:32:31;16.50;99.90
51908;DHT22;39320;53.214;6.556;2023-10-13T07:34:59;16.50;99.90
51908;DHT22;39320;53.214;6.556;2023-10-13T07:37:35;16.50;99.90
51908;DHT22;39320;53.214;6.556;2023-10-13T07:40:01;16.50;99.90
51908;DHT22;39320;53.214;6.556;2023-10-13T07:42:34;16.50;99.90
51908;DHT22;39320;53.214;6.556;2023-10-13T07:45:06;16.50;99.90
51908;DHT22;39320;53.214;6.556;2023-10-13T07:47:31;16.50;99.90
51908;DHT22;39320;53.214;6.556;2023-10-13T07:49:59;16.60;99.90
51908;DHT22;39320;53.214;6.556;2023-10-13T07:52:24;16.50;99.90
51908;DHT22;39320;53.214;6.556;2023-10-13T07:55:01;16.50;99.90
51908;DHT22;39320;53.214;6.556;2023-10-13T07:57:45;16.50;99.90
51908;DHT22;39320;53.214;6.556;2023-10-13T08:00:21;16.40;99.90
51908;DHT22;39320;53.214;6.556;2023-10-13T08:03:06;16.50;99.90
51908;DHT22;39320;53.214;6.556;2023-10-13T08:05:44;16.40;99.90
51908;DHT22;39320;53.214;6.556;2023-10-13T08:08:36;16.40;99.90
51908;DHT22;39320;53.214;6.556;2023-10-13T08:11:13;16.40;99.90
51908;DHT22;39320;53.214;6.556;2023-10-13T08:13:54;16.30;99.90
51908;DHT22;39320;53.214;6.556;2023-10-13T08:16:41;16.40;99.90
51908;DHT22;39320;53.214;6.556;2023-10-13T08:19:24;16.40;99.90
51908;DHT22;39320;53.214;6.556;2023-10-13T08:21:59;16.40;99.90
51908;DHT22;39320;53.214;6.556;2023-10-13T08:24:49;16.40;99.90
51908;DHT22;39320;53.214;6.556;2023-10-13T08:27:19;16.40;99.90
51908;DHT22;39320;53.214;6.556;2023-10-13T08:30:01;16.40;99.90
51908;DHT22;39320;53.214;6.556;2023-10-13T08:32:28;16.40;99.90
51908;DHT22;39320;53.214;6.556;2023-10-13T08:35:01;16.50;99.90
51908;DHT22;39320;53.214;6.556;2023-10-13T08:37:33;16.50;99.90
51908;DHT22;39320;53.214;6.556;2023-10-13T08:40:01;16.40;99.90
51908;DHT22;39320;53.214;6.556;2023-10-13T08:42:32;16.50;99.90
51908;DHT22;39320;53.214;6.556;2023-10-13T08:45:08;16.50;99.90
51908;DHT22;39320;53.214;6.556;2023-10-13T08:47:57;16.50;99.90
51908;DHT22;39320;53.214;6.556;2023-10-13T08:50:48;16.50;99.90
51908;DHT22;39320;53.214;6.556;2023-10-13T08:53:23;16.60;99.90
51908;DHT22;39320;53.214;6.556;2023-10-13T08:56:03;16.60;99.90
51908;DHT22;39320;53.214;6.556;2023-10-13T08:58:45;16.60;99.90
51908;DHT22;39320;53.214;6.556;2023-10-13T09:01:21;16.60;99.90
51908;DHT22;39320;53.214;6.556;2023-10-13T09:04:08;16.60;99.90
51908;DHT22;39320;53.214;6.556;2023-10-13T09:07:03;16.60;99.90
51908;DHT22;39320;53.214;6.556;2023-10-13T09:12:34;16.70;99.90
51908;DHT22;39320;53.214;6.556;2023-10-13T09:17:47;16.80;99.90
51908;DHT22;39320;53.214;6.556;2023-10-13T09:20:28;16.80;99.90
51908;DHT22;39320;53.214;6.556;2023-10-13T09:23:12;16.90;99.90
51908;DHT22;39320;53.214;6.556;2023-10-13T09:25:49;16.90;99.90
51908;DHT22;39320;53.214;6.556;2023-10-13T09:28:34;17.00;99.90
51908;DHT22;39320;53.214;6.556;2023-10-13T09:31:02;17.00;99.90
51908;DHT22;39320;53.214;6.556;2023-10-13T09:33:33;17.10;99.90
51908;DHT22;39320;53.214;6.556;2023-10-13T09:36:06;17.10;99.90
51908;DHT22;39320;53.214;6.556;2023-10-13T09:38:36;17.20;99.90
51908;DHT22;39320;53.214;6.556;2023-10-13T09:41:06;17.30;99.90
51908;DHT22;39320;53.214;6.556;2023-10-13T09:43:44;17.40;99.90
51908;DHT22;39320;53.214;6.556;2023-10-13T09:46:10;17.30;99.90
51908;DHT22;39320;53.214;6.556;2023-10-13T09:48:47;17.40;99.90
51908;DHT22;39320;53.214;6.556;2023-10-13T09:51:16;17.50;99.90
51908;DHT22;39320;53.214;6.556;2023-10-13T09:54:18;17.50;99.90
51908;DHT22;39320;53.214;6.556;2023-10-13T09:56:56;17.60;99.90
51908;DHT22;39320;53.214;6.556;2023-10-13T09:59:33;17.60;99.90
51908;DHT22;39320;53.214;6.556;2023-10-13T10:02:05;17.60;99.90
51908;DHT22;39320;53.214;6.556;2023-10-13T10:04:35;17.70;99.90
51908;DHT22;39320;53.214;6.556;2023-10-13T10:07:27;17.70;99.90
51908;DHT22;39320;53.214;6.556;2023-10-13T10:09:59;17.80;99.90
51908;DHT22;39320;53.214;6.556;2023-10-13T10:17:59;17.90;99.90
51908;DHT22;39320;53.214;6.556;2023-10-13T10:20:30;17.90;99.90
51908;DHT22;39320;53.214;6.556;2023-10-13T10:23:07;18.00;99.90
51908;DHT22;39320;53.214;6.556;2023-10-13T10:25:48;18.00;99.90
51908;DHT22;39320;53.214;6.556;2023-10-13T10:28:15;18.00;99.90
51908;DHT22;39320;53.214;6.556;2023-10-13T10:30:42;18.10;99.90
51908;DHT22;39320;53.214;6.556;2023-10-13T10:33:10;18.10;99.90
51908;DHT22;39320;53.214;6.556;2023-10-13T10:35:45;18.20;99.90
51908;DHT22;39320;53.214;6.556;2023-10-13T10:38:13;18.20;99.90
51908;DHT22;39320;53.214;6.556;2023-10-13T10:41:02;18.30;99.90
51908;DHT22;39320;53.214;6.556;2023-10-13T10:43:35;18.30;99.90
51908;DHT22;39320;53.214;6.556;2023-10-13T10:46:27;18.30;99.90
51908;DHT22;39320;53.214;6.556;2023-10-13T10:48:55;18.40;99.90
51908;DHT22;39320;53.214;6.556;2023-10-13T10:51:27;18.40;99.90
51908;DHT22;39320;53.214;6.556;2023-10-13T10:53:57;18.50;99.90
51908;DHT22;39320;53.214;6.556;2023-10-13T10:56:26;18.50;99.90
51908;DHT22;39320;53.214;6.556;2023-10-13T10:59:01;18.50;99.90
51908;DHT22;39320;53.214;6.556;2023-10-13T11:01:28;18.50;99.90
51908;DHT22;39320;53.214;6.556;2023-10-13T11:04:08;18.60;99.90
51908;DHT22;39320;53.214;6.556;2023-10-13T11:06:37;18.60;99.90
51908;DHT22;39320;53.214;6.556;2023-10-13T11:09:11;18.70;99.90
51908;DHT22;39320;53.214;6.556;2023-10-13T11:11:47;18.70;99.90
51908;DHT22;39320;53.214;6.556;2023-10-13T11:14:27;18.80;99.90
51908;DHT22;39320;53.214;6.556;2023-10-13T11:16:54;18.80;99.90
51908;DHT22;39320;53.214;6.556;2023-10-13T11:19:21;18.80;99.90
51908;DHT22;39320;53.214;6.556;2023-10-13T11:22:10;18.80;99.90
51908;DHT22;39320;53.214;6.556;2023-10-13T11:24:42;18.90;99.90
51908;DHT22;39320;53.214;6.556;2023-10-13T11:27:15;18.90;99.90
51908;DHT22;39320;53.214;6.556;2023-10-13T11:30:04;18.90;99.90
51908;DHT22;39320;53.214;6.556;2023-10-13T11:32:37;18.90;99.90
51908;DHT22;39320;53.214;6.556;2023-10-13T11:35:10;19.00;99.90
51908;DHT22;39320;53.214;6.556;2023-10-13T11:37:52;19.00;99.90
51908;DHT22;39320;53.214;6.556;2023-10-13T11:40:38;19.00;99.90
51908;DHT22;39320;53.214;6.556;2023-10-13T11:43:25;19.00;99.90
51908;DHT22;39320;53.214;6.556;2023-10-13T11:45:51;19.00;99.90
51908;DHT22;39320;53.214;6.556;2023-10-13T11:48:41;19.00;99.90
51908;DHT22;39320;53.214;6.556;2023-10-13T11:51:14;19.00;99.90
51908;DHT22;39320;53.214;6.556;2023-10-13T11:53:49;18.90;99.90
51908;DHT22;39320;53.214;6.556;2023-10-13T11:56:18;18.90;99.90
51908;DHT22;39320;53.214;6.556;2023-10-13T11:58:48;18.80;99.90
51908;DHT22;39320;53.214;6.556;2023-10-13T12:01:14;18.80;99.90
51908;DHT22;39320;53.214;6.556;2023-10-13T12:03:46;18.70;99.90
51908;DHT22;39320;53.214;6.556;2023-10-13T12:06:31;18.70;99.90
51908;DHT22;39320;53.214;6.556;2023-10-13T12:09:04;18.70;99.90
51908;DHT22;39320;53.214;6.556;2023-10-13T12:11:45;18.60;99.90
51908;DHT22;39320;53.214;6.556;2023-10-13T12:14:12;18.60;99.90
51908;DHT22;39320;53.214;6.556;2023-10-13T12:16:53;18.70;99.90
51908;DHT22;39320;53.214;6.556;2023-10-13T12:19:23;18.70;99.90
51908;DHT22;39320;53.214;6.556;2023-10-13T12:21:49;18.80;99.90
51908;DHT22;39320;53.214;6.556;2023-10-13T12:24:20;18.80;99.90
51908;DHT22;39320;53.214;6.556;2023-10-13T12:27:09;18.80;99.90
51908;DHT22;39320;53.214;6.556;2023-10-13T12:29:50;18.70;99.90
51908;DHT22;39320;53.214;6.556;2023-10-13T12:32:22;18.80;99.90
51908;DHT22;39320;53.214;6.556;2023-10-13T12:34:50;18.80;99.90
51908;DHT22;39320;53.214;6.556;2023-10-13T12:37:30;18.90;99.90
51908;DHT22;39320;53.214;6.556;2023-10-13T12:40:05;18.90;99.90
51908;DHT22;39320;53.214;6.556;2023-10-13T12:42:50;18.90;99.90
51908;DHT22;39320;53.214;6.556;2023-10-13T12:45:41;19.00;99.90
51908;DHT22;39320;53.214;6.556;2023-10-13T12:48:26;18.90;99.90
51908;DHT22;39320;53.214;6.556;2023-10-13T12:51:11;18.90;99.90
51908;DHT22;39320;53.214;6.556;2023-10-13T12:54:06;18.80;99.90
51908;DHT22;39320;53.214;6.556;2023-10-13T12:56:45;18.80;99.90
51908;DHT22;39320;53.214;6.556;2023-10-13T12:59:11;18.70;99.90
51908;DHT22;39320;53.214;6.556;2023-10-13T13:01:41;18.70;99.90
51908;DHT22;39320;53.214;6.556;2023-10-13T13:04:10;18.70;99.90
51908;DHT22;39320;53.214;6.556;2023-10-13T13:06:57;18.70;99.90
51908;DHT22;39320;53.214;6.556;2023-10-13T13:09:23;18.70;99.90
51908;DHT22;39320;53.214;6.556;2023-10-13T13:11:54;18.60;99.90
51908;DHT22;39320;53.214;6.556;2023-10-13T13:14:24;18.60;99.90
51908;DHT22;39320;53.214;6.556;2023-10-13T13:16:57;18.50;99.90
51908;DHT22;39320;53.214;6.556;2023-10-13T13:19:36;18.50;99.90
51908;DHT22;39320;53.214;6.556;2023-10-13T13:22:05;18.50;99.90
51908;DHT22;39320;53.214;6.556;2023-10-13T13:24:35;18.50;99.90
51908;DHT22;39320;53.214;6.556;2023-10-13T13:27:00;18.50;99.90
51908;DHT22;39320;53.214;6.556;2023-10-13T13:29:30;18.40;99.90
51908;DHT22;39320;53.214;6.556;2023-10-13T13:31:56;18.40;99.90
51908;DHT22;39320;53.214;6.556;2023-10-13T13:34:22;18.40;99.90
51908;DHT22;39320;53.214;6.556;2023-10-13T13:36:48;18.40;99.90
51908;DHT22;39320;53.214;6.556;2023-10-13T13:39:19;18.30;99.90
51908;DHT22;39320;53.214;6.556;2023-10-13T13:41:55;18.40;99.90
51908;DHT22;39320;53.214;6.556;2023-10-13T13:44:25;18.30;99.90
51908;DHT22;39320;53.214;6.556;2023-10-13T13:47:01;18.30;99.90
51908;DHT22;39320;53.214;6.556;2023-10-13T13:49:40;18.20;99.90
51908;DHT22;39320;53.214;6.556;2023-10-13T13:52:11;18.30;99.90
51908;DHT22;39320;53.214;6.556;2023-10-13T13:54:43;18.30;99.90
51908;DHT22;39320;53.214;6.556;2023-10-13T13:57:09;18.30;99.90
51908;DHT22;39320;53.214;6.556;2023-10-13T13:59:35;18.30;99.90
51908;DHT22;39320;53.214;6.556;2023-10-13T14:02:04;18.30;99.90
51908;DHT22;39320;53.214;6.556;2023-10-13T14:04:45;18.30;99.90
51908;DHT22;39320;53.214;6.556;2023-10-13T14:07:13;18.30;99.90
51908;DHT22;39320;53.214;6.556;2023-10-13T14:09:40;18.30;99.90
51908;DHT22;39320;53.214;6.556;2023-10-13T14:12:09;18.40;99.90
51908;DHT22;39320;53.214;6.556;2023-10-13T14:14:54;18.40;99.90
51908;DHT22;39320;53.214;6.556;2023-10-13T14:17:23;18.40;99.90
51908;DHT22;39320;53.214;6.556;2023-10-13T14:19:56;18.40;99.90
51908;DHT22;39320;53.214;6.556;2023-10-13T14:22:23;18.40;99.90
51908;DHT22;39320;53.214;6.556;2023-10-13T14:24:51;18.40;99.90
51908;DHT22;39320;53.214;6.556;2023-10-13T14:27:23;18.40;99.90
51908;DHT22;39320;53.214;6.556;2023-10-13T14:29:51;18.40;99.90
51908;DHT22;39320;53.214;6.556;2023-10-13T14:32:22;18.50;99.90
51908;DHT22;39320;53.214;6.556;2023-10-13T14:34:50;18.50;99.90
51908;DHT22;39320;53.214;6.556;2023-10-13T14:37:23;18.50;99.90
51908;DHT22;39320;53.214;6.556;2023-10-13T14:39:55;18.50;99.90
51908;DHT22;39320;53.214;6.556;2023-10-13T14:42:27;18.50;99.90
51908;DHT22;39320;53.214;6.556;2023-10-13T14:44:53;18.50;99.90
51908;DHT22;39320;53.214;6.556;2023-10-13T14:47:25;18.50;99.90
51908;DHT22;39320;53.214;6.556;2023-10-13T14:49:54;18.50;99.90
51908;DHT22;39320;53.214;6.556;2023-10-13T14:52:22;18.50;99.90
51908;DHT22;39320;53.214;6.556;2023-10-13T14:54:48;18.50;99.90
51908;DHT22;39320;53.214;6.556;2023-10-13T14:57:21;18.50;99.90
51908;DHT22;39320;53.214;6.556;2023-10-13T14:59:51;18.50;99.90
51908;DHT22;39320;53.214;6.556;2023-10-13T15:02:17;18.50;99.90
51908;DHT22;39320;53.214;6.556;2023-10-13T15:04:43;18.50;99.90
51908;DHT22;39320;53.214;6.556;2023-10-13T15:07:08;18.60;99.90
51908;DHT22;39320;53.214;6.556;2023-10-13T15:09:34;18.50;99.90
51908;DHT22;39320;53.214;6.556;2023-10-13T15:12:00;18.50;99.90
51908;DHT22;39320;53.214;6.556;2023-10-13T15:14:31;18.60;99.90
51908;DHT22;39320;53.214;6.556;2023-10-13T15:16:59;18.60;99.90
51908;DHT22;39320;53.214;6.556;2023-10-13T15:19:26;18.60;99.90
51908;DHT22;39320;53.214;6.556;2023-10-13T15:21:54;18.60;99.90
51908;DHT22;39320;53.214;6.556;2023-10-13T15:24:20;18.50;99.90
51908;DHT22;39320;53.214;6.556;2023-10-13T15:26:47;18.50;99.90
51908;DHT22;39320;53.214;6.556;2023-10-13T15:29:15;18.40;99.90
51908;DHT22;39320;53.214;6.556;2023-10-13T15:31:45;18.40;99.90
51908;DHT22;39320;53.214;6.556;2023-10-13T15:34:40;18.30;99.90
51908;DHT22;39320;53.214;6.556;2023-10-13T15:37:05;18.20;99.90
51908;DHT22;39320;53.214;6.556;2023-10-13T15:39:31;18.20;99.90
51908;DHT22;39320;53.214;6.556;2023-10-13T15:41:58;18.20;99.90
51908;DHT22;39320;53.214;6.556;2023-10-13T15:44:27;18.20;99.90
51908;DHT22;39320;53.214;6.556;2023-10-13T15:46:56;18.20;99.90
51908;DHT22;39320;53.214;6.556;2023-10-13T15:49:23;18.20;99.90
51908;DHT22;39320;53.214;6.556;2023-10-13T15:51:49;18.20;99.90
51908;DHT22;39320;53.214;6.556;2023-10-13T15:54:17;18.10;99.90
51908;DHT22;39320;53.214;6.556;2023-10-13T15:56:45;18.20;99.90
51908;DHT22;39320;53.214;6.556;2023-10-13T15:59:11;18.10;99.90
51908;DHT22;39320;53.214;6.556;2023-10-13T16:01:37;18.20;99.90
51908;DHT22;39320;53.214;6.556;2023-10-13T16:04:05;18.10;99.90
51908;DHT22;39320;53.214;6.556;2023-10-13T16:06:40;18.10;99.90
51908;DHT22;39320;53.214;6.556;2023-10-13T16:09:07;18.10;99.90
51908;DHT22;39320;53.214;6.556;2023-10-13T16:11:40;18.00;99.90
51908;DHT22;39320;53.214;6.556;2023-10-13T16:14:08;18.10;99.90
51908;DHT22;39320;53.214;6.556;2023-10-13T16:16:36;18.10;99.90
51908;DHT22;39320;53.214;6.556;2023-10-13T16:19:02;18.10;99.90
51908;DHT22;39320;53.214;6.556;2023-10-13T16:21:30;18.00;99.90
51908;DHT22;39320;53.214;6.556;2023-10-13T16:23:56;18.10;99.90
51908;DHT22;39320;53.214;6.556;2023-10-13T16:26:21;18.00;99.90